createdAt,value
2019-05-23T00:01:24.827Z,6.83
2019-05-23T00:03:54.971Z,8.60
2019-05-23T00:06:25.528Z,7.67
2019-05-23T00:08:55.355Z,8.18
2019-05-23T00:11:26.079Z,8.23
2019-05-23T00:13:58.384Z,9.38
2019-05-23T00:16:28.668Z,8.83
2019-05-23T00:19:00.541Z,7.83
2019-05-23T00:21:30.611Z,7.92
2019-05-23T00:24:00.108Z,7.83
2019-05-23T00:26:29.934Z,8.23
2019-05-23T00:29:09.479Z,8.90
2019-05-23T00:31:37.121Z,8.60
2019-05-23T00:34:06.790Z,10.50
2019-05-23T00:36:35.605Z,9.23
2019-05-23T00:39:08.680Z,8.70
2019-05-23T00:41:39.547Z,8.83
2019-05-23T00:44:08.436Z,9.60
2019-05-23T00:46:38.158Z,9.60
2019-05-23T00:49:08.280Z,8.18
2019-05-23T00:51:36.932Z,7.47
2019-05-23T00:54:06.285Z,7.50
2019-05-23T00:56:35.933Z,7.78
2019-05-23T00:59:05.960Z,7.60
2019-05-23T01:01:34.936Z,8.25
2019-05-23T01:04:04.023Z,7.10
2019-05-23T01:06:34.826Z,7.92
2019-05-23T01:09:05.158Z,6.90
2019-05-23T01:11:34.318Z,7.80
2019-05-23T01:14:03.466Z,7.12
2019-05-23T01:16:32.803Z,7.95
2019-05-23T01:19:01.803Z,8.03
2019-05-23T01:21:41.097Z,7.87
2019-05-23T01:24:17.177Z,7.42
2019-05-23T01:26:45.888Z,7.67
2019-05-23T01:29:14.682Z,8.33
2019-05-23T01:31:45.027Z,8.18
2019-05-23T01:34:15.311Z,7.87
2019-05-23T01:36:45.868Z,6.30
2019-05-23T01:39:15.266Z,6.83
2019-05-23T01:41:44.010Z,6.78
2019-05-23T01:44:12.972Z,8.20
2019-05-23T01:46:42.784Z,7.17
2019-05-23T01:49:12.132Z,7.05
2019-05-23T01:51:40.553Z,6.97
2019-05-23T01:54:09.707Z,5.80
2019-05-23T01:56:39.359Z,5.22
2019-05-23T01:59:08.286Z,5.87
2019-05-23T02:01:39.024Z,5.17
2019-05-23T02:04:08.280Z,5.47
2019-05-23T02:06:36.990Z,5.10
2019-05-23T02:09:08.627Z,6.75
2019-05-23T02:11:38.025Z,6.05
2019-05-23T02:14:07.951Z,5.72
2019-05-23T02:16:37.973Z,6.17
2019-05-23T02:19:07.622Z,6.20
2019-05-23T02:21:36.945Z,5.72
2019-05-23T02:24:07.129Z,5.75
2019-05-23T02:26:37.152Z,5.60
2019-05-23T02:29:06.248Z,6.15
2019-05-23T02:31:36.204Z,5.65
2019-05-23T02:34:05.364Z,6.00
2019-05-23T02:36:35.204Z,6.15
2019-05-23T02:39:24.962Z,6.10
2019-05-23T02:41:58.643Z,5.72
2019-05-23T02:44:28.849Z,6.65
2019-05-23T02:47:03.579Z,5.47
2019-05-23T02:49:33.922Z,6.17
2019-05-23T02:52:05.783Z,6.22
2019-05-23T02:54:37.459Z,5.47
2019-05-23T02:57:07.315Z,5.35
2019-05-23T02:59:48.622Z,5.58
2019-05-23T03:02:30.659Z,5.25
2019-05-23T03:05:00.024Z,5.53
2019-05-23T03:07:33.122Z,5.87
2019-05-23T03:10:02.485Z,4.97
2019-05-23T03:12:31.475Z,4.70
2019-05-23T03:15:00.995Z,4.90
2019-05-23T03:17:33.099Z,5.05
2019-05-23T03:20:05.902Z,5.50
2019-05-23T03:22:44.345Z,3.87
2019-05-23T03:25:21.816Z,4.45
2019-05-23T03:27:50.722Z,4.45
2019-05-23T03:30:24.386Z,5.70
2019-05-23T03:32:55.393Z,4.85
2019-05-23T03:35:34.672Z,4.80
2019-05-23T03:38:03.590Z,4.40
2019-05-23T03:40:35.111Z,4.20
2019-05-23T03:43:05.212Z,4.08
2019-05-23T03:45:39.523Z,3.80
2019-05-23T03:48:07.128Z,5.90
2019-05-23T03:50:35.611Z,4.20
2019-05-23T03:53:06.334Z,5.08
2019-05-23T03:55:37.232Z,5.22
2019-05-23T03:58:06.009Z,4.67
2019-05-23T04:00:36.907Z,5.37
2019-05-23T04:03:05.640Z,4.92
2019-05-23T04:05:34.882Z,4.95
2019-05-23T04:08:04.645Z,5.20
2019-05-23T04:10:33.431Z,5.20
2019-05-23T04:13:02.242Z,4.95
2019-05-23T04:15:30.755Z,5.08
2019-05-23T04:17:59.176Z,5.28
2019-05-23T04:20:27.971Z,4.70
2019-05-23T04:22:56.637Z,5.70
2019-05-23T04:25:25.249Z,5.33
2019-05-23T04:27:55.216Z,6.20
2019-05-23T04:30:24.073Z,4.40
2019-05-23T04:32:52.668Z,5.22
2019-05-23T04:35:21.206Z,4.95
2019-05-23T04:37:50.511Z,5.12
2019-05-23T04:40:18.970Z,5.45
2019-05-23T04:42:47.595Z,5.37
2019-05-23T04:45:16.460Z,4.37
2019-05-23T04:47:45.548Z,5.35
2019-05-23T04:50:16.385Z,4.50
2019-05-23T04:52:45.092Z,5.55
2019-05-23T04:55:15.296Z,4.92
2019-05-23T04:57:44.152Z,5.00
2019-05-23T05:00:16.064Z,5.85
2019-05-23T05:02:47.193Z,6.47
2019-05-23T05:05:16.618Z,7.37
2019-05-23T05:07:45.311Z,7.12
2019-05-23T05:10:17.159Z,5.65
2019-05-23T05:12:45.702Z,6.78
2019-05-23T05:15:14.801Z,7.65
2019-05-23T05:17:43.586Z,6.45
2019-05-23T05:20:12.858Z,6.78
2019-05-23T05:22:41.982Z,7.90
2019-05-23T05:25:10.664Z,6.75
2019-05-23T05:27:40.619Z,6.30
2019-05-23T05:30:10.967Z,7.70
2019-05-23T05:32:44.589Z,6.78
2019-05-23T05:35:11.646Z,7.75
2019-05-23T05:37:40.204Z,7.42
2019-05-23T05:40:09.594Z,7.67
2019-05-23T05:42:39.184Z,7.55
2019-05-23T05:45:09.208Z,7.72
2019-05-23T05:47:39.783Z,7.35
2019-05-23T05:50:13.871Z,7.55
2019-05-23T05:52:42.842Z,7.45
2019-05-23T05:55:12.075Z,6.67
2019-05-23T05:57:40.739Z,6.97
2019-05-23T06:00:13.497Z,7.08
2019-05-23T06:02:42.728Z,6.87
2019-05-23T06:05:13.018Z,7.05
2019-05-23T06:07:42.183Z,6.62
2019-05-23T06:10:12.806Z,7.72
2019-05-23T06:12:41.548Z,6.28
2019-05-23T06:15:10.811Z,7.10
2019-05-23T06:17:39.699Z,8.00
2019-05-23T06:20:08.973Z,7.23
2019-05-23T06:22:40.698Z,7.60
2019-05-23T06:25:11.344Z,7.13
2019-05-23T06:27:40.708Z,7.60
2019-05-23T06:30:12.549Z,7.30
2019-05-23T06:32:41.216Z,8.27
2019-05-23T06:35:10.160Z,8.70
2019-05-23T06:37:39.763Z,9.00
2019-05-23T06:40:11.674Z,8.90
2019-05-23T06:42:40.137Z,8.67
2019-05-23T06:45:11.663Z,8.80
2019-05-23T06:47:40.555Z,8.07
2019-05-23T06:50:15.913Z,9.13
2019-05-23T06:52:46.549Z,9.50
2019-05-23T06:55:15.053Z,9.73
2019-05-23T06:57:45.388Z,9.80
2019-05-23T07:00:17.090Z,9.73
2019-05-23T07:02:47.707Z,8.77
2019-05-23T07:05:18.210Z,9.20
2019-05-23T07:07:47.488Z,8.00
2019-05-23T07:10:16.561Z,8.77
2019-05-23T07:12:45.401Z,7.57
2019-05-23T07:15:13.839Z,7.80
2019-05-23T07:17:42.715Z,7.60
2019-05-23T07:20:12.163Z,6.60
2019-05-23T07:22:41.119Z,5.93
2019-05-23T07:25:10.558Z,6.37
2019-05-23T07:27:39.648Z,6.30
2019-05-23T07:30:23.470Z,6.90
2019-05-23T07:32:53.438Z,5.83
2019-05-23T07:35:23.092Z,5.40
2019-05-23T07:37:51.508Z,5.67
2019-05-23T07:40:21.465Z,5.07
2019-05-23T07:42:50.208Z,5.20
2019-05-23T07:45:26.459Z,5.30
2019-05-23T07:47:55.143Z,4.90
2019-05-23T07:50:25.545Z,5.33
2019-05-23T07:52:56.672Z,4.60
2019-05-23T07:55:26.747Z,4.43
2019-05-23T07:57:56.900Z,4.40
2019-05-23T08:00:33.054Z,4.10
2019-05-23T08:03:05.749Z,3.60
2019-05-23T08:05:35.032Z,3.43
2019-05-23T08:08:04.762Z,3.30
2019-05-23T08:10:34.528Z,3.00
2019-05-23T08:13:03.348Z,3.70
2019-05-23T08:15:33.332Z,3.37
2019-05-23T08:18:01.823Z,2.83
2019-05-23T08:20:30.266Z,2.97
2019-05-23T08:22:58.955Z,2.83
2019-05-23T08:25:27.536Z,3.40
2019-05-23T08:27:55.979Z,3.93
2019-05-23T08:30:24.583Z,3.30
2019-05-23T08:32:53.152Z,3.77
2019-05-23T08:35:22.303Z,6.20
2019-05-23T08:37:50.890Z,3.60
2019-05-23T08:40:22.341Z,3.80
2019-05-23T08:42:51.848Z,3.13
2019-05-23T08:45:21.315Z,3.63
2019-05-23T08:47:49.755Z,3.70
2019-05-23T08:50:21.099Z,3.37
2019-05-23T08:52:49.613Z,3.40
2019-05-23T08:55:23.914Z,4.23
2019-05-23T08:57:54.682Z,3.90
2019-05-23T09:00:26.101Z,4.77
2019-05-23T09:02:58.529Z,3.93
2019-05-23T09:05:27.535Z,3.63
2019-05-23T09:07:55.982Z,4.00
2019-05-23T09:10:25.607Z,3.90
2019-05-23T09:12:55.697Z,3.73
2019-05-23T09:15:24.356Z,3.50
2019-05-23T09:17:54.290Z,3.93
2019-05-23T09:20:24.742Z,4.00
2019-05-23T09:22:54.736Z,3.60
2019-05-23T09:25:23.402Z,4.07
2019-05-23T09:27:53.402Z,4.23
2019-05-23T09:30:25.004Z,4.57
2019-05-23T09:32:53.490Z,3.90
2019-05-23T09:35:22.477Z,4.07
2019-05-23T09:37:51.225Z,4.30
2019-05-23T09:40:20.500Z,4.03
2019-05-23T09:42:49.108Z,4.50
2019-05-23T09:45:18.192Z,3.93
2019-05-23T09:47:51.103Z,4.00
2019-05-23T09:50:19.431Z,4.07
2019-05-23T09:52:49.481Z,4.30
2019-05-23T09:55:18.049Z,3.53
2019-05-23T09:57:46.467Z,3.90
2019-05-23T10:00:19.574Z,3.80
2019-05-23T10:02:48.082Z,4.00
2019-05-23T10:05:18.226Z,3.77
2019-05-23T10:07:46.729Z,4.00
2019-05-23T10:10:17.179Z,3.40
2019-05-23T10:12:45.761Z,4.13
2019-05-23T10:15:16.793Z,4.33
2019-05-23T10:17:45.216Z,4.13
2019-05-23T10:20:14.878Z,4.10
2019-05-23T10:22:44.834Z,3.87
2019-05-23T10:25:13.543Z,4.03
2019-05-23T10:27:41.975Z,3.77
2019-05-23T10:30:12.493Z,3.50
2019-05-23T10:32:40.983Z,3.40
2019-05-23T10:35:09.842Z,3.37
2019-05-23T10:37:38.403Z,3.00
2019-05-23T10:40:07.605Z,3.57
2019-05-23T10:42:38.808Z,3.97
2019-05-23T10:45:08.782Z,3.37
2019-05-23T10:47:37.853Z,3.57
2019-05-23T10:50:09.446Z,3.60
2019-05-23T10:52:38.023Z,2.90
2019-05-23T10:55:08.074Z,4.00
2019-05-23T10:57:36.833Z,3.87
2019-05-23T11:00:06.622Z,2.97
2019-05-23T11:02:36.293Z,3.50
2019-05-23T11:05:12.802Z,3.60
2019-05-23T11:07:38.285Z,3.50
2019-05-23T11:10:07.764Z,4.00
2019-05-23T11:12:36.195Z,3.43
2019-05-23T11:15:06.626Z,3.00
2019-05-23T11:17:36.103Z,3.50
2019-05-23T11:20:10.736Z,4.10
2019-05-23T11:22:39.368Z,2.90
2019-05-23T11:25:10.532Z,3.20
2019-05-23T11:27:39.019Z,3.13
2019-05-23T11:30:11.223Z,3.70
2019-05-23T11:32:39.813Z,3.60
2019-05-23T11:35:08.682Z,3.80
2019-05-23T11:37:37.196Z,3.47
2019-05-23T11:40:07.832Z,3.40
2019-05-23T11:42:38.504Z,3.47
2019-05-23T11:45:07.568Z,3.00
2019-05-23T11:47:36.384Z,5.63
2019-05-23T11:50:07.628Z,3.70
2019-05-23T11:52:37.629Z,3.00
2019-05-23T11:55:07.540Z,3.10
2019-05-23T11:57:38.169Z,5.07
2019-05-23T12:00:10.476Z,3.30
2019-05-23T12:02:43.694Z,3.37
2019-05-23T12:05:14.748Z,3.67
2019-05-23T12:07:43.332Z,3.60
2019-05-23T12:10:13.424Z,3.10
2019-05-23T12:12:42.020Z,4.03
2019-05-23T12:15:13.728Z,3.77
2019-05-23T12:17:44.020Z,3.60
2019-05-23T12:20:13.454Z,3.10
2019-05-23T12:22:42.501Z,3.47
2019-05-23T12:25:21.750Z,3.77
2019-05-23T12:27:42.066Z,3.90
2019-05-23T12:30:13.339Z,4.30
2019-05-23T12:32:42.015Z,3.20
2019-05-23T12:35:12.123Z,3.30
2019-05-23T12:37:40.891Z,3.80
2019-05-23T12:40:11.141Z,3.07
2019-05-23T12:42:41.231Z,3.10
2019-05-23T12:45:11.949Z,3.30
2019-05-23T12:47:57.217Z,3.30
2019-05-23T12:50:31.991Z,3.43
2019-05-23T12:53:00.500Z,3.53
2019-05-23T12:55:29.014Z,3.53
2019-05-23T12:57:59.182Z,3.90
2019-05-23T13:00:29.443Z,4.30
2019-05-23T13:02:58.076Z,4.27
2019-05-23T13:05:26.975Z,4.17
2019-05-23T13:07:56.856Z,5.73
2019-05-23T13:10:26.675Z,4.50
2019-05-23T13:12:55.106Z,4.00
2019-05-23T13:15:24.619Z,3.43
2019-05-23T13:17:53.038Z,4.30
2019-05-23T13:20:21.732Z,4.33
2019-05-23T13:22:50.277Z,3.90
2019-05-23T13:25:18.890Z,4.20
2019-05-23T13:27:47.528Z,4.57
2019-05-23T13:30:16.515Z,4.50
2019-05-23T13:32:44.986Z,4.27
2019-05-23T13:35:15.075Z,3.23
2019-05-23T13:37:53.252Z,3.40
2019-05-23T13:40:14.604Z,3.17
2019-05-23T13:42:43.507Z,3.30
2019-05-23T13:45:12.525Z,3.30
2019-05-23T13:47:41.035Z,4.10
2019-05-23T13:50:10.159Z,3.77
2019-05-23T13:52:39.448Z,2.63
2019-05-23T13:55:09.756Z,3.00
2019-05-23T13:57:38.175Z,4.00
2019-05-23T14:00:07.584Z,4.30
2019-05-23T14:02:36.386Z,4.23
2019-05-23T14:05:07.522Z,3.90
2019-05-23T14:07:36.763Z,3.80
2019-05-23T14:10:09.944Z,3.30
2019-05-23T14:12:38.978Z,4.30
2019-05-23T14:15:10.572Z,4.33
2019-05-23T14:17:40.858Z,3.97
2019-05-23T14:20:10.028Z,3.50
2019-05-23T14:22:40.292Z,3.63
2019-05-23T14:25:09.056Z,3.57
2019-05-23T14:27:51.033Z,3.30
2019-05-23T14:30:30.330Z,4.30
2019-05-23T14:33:01.227Z,3.83
2019-05-23T14:35:31.628Z,3.77
2019-05-23T14:38:04.796Z,3.60
2019-05-23T14:40:33.346Z,3.60
2019-05-23T14:43:15.550Z,3.50
2019-05-23T14:45:55.057Z,2.70
2019-05-23T14:48:41.441Z,3.93
2019-05-23T14:51:24.205Z,4.13
2019-05-23T14:54:04.312Z,4.13
2019-05-23T14:56:34.614Z,4.10
2019-05-23T14:59:03.402Z,3.50
2019-05-23T15:01:33.465Z,4.53
2019-05-23T15:04:02.476Z,3.57
2019-05-23T15:06:31.396Z,3.30
2019-05-23T15:08:59.925Z,3.43
2019-05-23T15:11:28.773Z,3.00
2019-05-23T15:13:57.283Z,3.60
2019-05-23T15:16:25.995Z,3.30
2019-05-23T15:18:54.527Z,3.87
2019-05-23T15:21:23.337Z,4.10
2019-05-23T15:23:52.043Z,3.80
2019-05-23T15:26:23.872Z,3.87
2019-05-23T15:28:52.992Z,4.10
2019-05-23T15:31:21.481Z,3.90
2019-05-23T15:33:50.228Z,3.40
2019-05-23T15:36:19.144Z,4.07
2019-05-23T15:38:47.765Z,3.80
2019-05-23T15:41:16.367Z,4.07
2019-05-23T15:43:44.880Z,3.13
2019-05-23T15:46:13.382Z,4.03
2019-05-23T15:48:41.898Z,3.67
2019-05-23T15:51:12.116Z,3.53
2019-05-23T15:53:42.250Z,3.47
2019-05-23T15:56:28.053Z,4.40
2019-05-23T15:58:56.570Z,4.10
2019-05-23T16:01:35.893Z,3.70
2019-05-23T16:04:06.651Z,3.23
2019-05-23T16:06:36.628Z,2.93
2019-05-23T16:09:25.649Z,3.90
2019-05-23T16:11:39.958Z,3.50
2019-05-23T16:14:08.733Z,3.20
2019-05-23T16:16:37.403Z,3.30
2019-05-23T16:19:06.282Z,3.60
2019-05-23T16:21:34.896Z,3.67
2019-05-23T16:24:04.547Z,2.97
2019-05-23T16:26:34.641Z,3.00
2019-05-23T16:29:03.858Z,3.00
2019-05-23T16:31:32.375Z,3.10
2019-05-23T16:34:00.808Z,2.93
2019-05-23T16:36:30.806Z,3.40
2019-05-23T16:38:59.306Z,3.37
2019-05-23T16:41:27.875Z,3.30
2019-05-23T16:43:56.290Z,2.90
2019-05-23T16:46:26.391Z,2.93
2019-05-23T16:48:55.023Z,3.03
2019-05-23T16:51:23.786Z,3.27
2019-05-23T16:53:52.646Z,2.83
2019-05-23T16:56:25.307Z,3.10
2019-05-23T16:59:02.956Z,3.70
2019-05-23T17:01:31.846Z,3.43
2019-05-23T17:04:11.214Z,3.53
2019-05-23T17:06:41.352Z,3.50
2019-05-23T17:09:17.216Z,3.30
2019-05-23T17:11:47.616Z,3.90
2019-05-23T17:14:20.489Z,3.00
2019-05-23T17:17:09.129Z,3.20
2019-05-23T17:19:42.433Z,2.90
2019-05-23T17:22:30.938Z,3.00
2019-05-23T17:25:09.664Z,3.07
2019-05-23T17:27:52.555Z,2.80
2019-05-23T17:30:22.646Z,2.90
2019-05-23T17:32:52.953Z,3.17
2019-05-23T17:35:21.516Z,3.37
2019-05-23T17:37:50.063Z,3.03
2019-05-23T17:40:25.098Z,2.80
2019-05-23T17:42:49.167Z,3.10
2019-05-23T17:45:18.129Z,2.90
2019-05-23T17:47:47.056Z,3.43
2019-05-23T17:50:15.577Z,3.10
2019-05-23T17:52:44.166Z,2.70
2019-05-23T17:55:13.065Z,3.30
2019-05-23T17:57:43.122Z,2.67
2019-05-23T18:00:14.407Z,2.83
2019-05-23T18:02:42.913Z,2.53
2019-05-23T18:05:12.400Z,3.10
2019-05-23T18:07:42.533Z,3.03
2019-05-23T18:10:12.195Z,3.30
2019-05-23T18:12:40.631Z,2.70
2019-05-23T18:15:11.575Z,2.60
2019-05-23T18:17:40.142Z,2.80
2019-05-23T18:20:09.494Z,3.10
2019-05-23T18:22:38.543Z,3.00
2019-05-23T18:25:09.076Z,2.50
2019-05-23T18:27:38.223Z,2.60
2019-05-23T18:30:10.220Z,2.47
2019-05-23T18:32:39.418Z,2.30
2019-05-23T18:35:09.963Z,2.23
2019-05-23T18:37:38.827Z,2.30
2019-05-23T18:40:08.218Z,2.17
2019-05-23T18:42:36.923Z,1.87
2019-05-23T18:45:09.332Z,2.27
2019-05-23T18:47:45.352Z,2.23
2019-05-23T18:50:16.481Z,1.90
2019-05-23T18:52:45.180Z,2.13
2019-05-23T18:55:14.989Z,1.93
2019-05-23T18:57:43.607Z,2.47
2019-05-23T19:00:13.797Z,3.33
2019-05-23T19:02:42.467Z,4.23
2019-05-23T19:05:11.507Z,2.90
2019-05-23T19:07:41.081Z,2.23
2019-05-23T19:10:11.415Z,2.63
2019-05-23T19:12:41.744Z,2.20
2019-05-23T19:15:11.381Z,2.30
2019-05-23T19:17:39.995Z,3.30
2019-05-23T19:20:08.585Z,2.30
2019-05-23T19:22:37.382Z,2.40
2019-05-23T19:25:08.032Z,2.43
2019-05-23T19:27:36.891Z,2.77
2019-05-23T19:30:06.827Z,2.30
2019-05-23T19:32:35.296Z,2.70
2019-05-23T19:35:05.724Z,2.40
2019-05-23T19:37:34.239Z,2.30
2019-05-23T19:40:02.798Z,3.17
2019-05-23T19:42:31.758Z,2.67
2019-05-23T19:45:00.668Z,3.07
2019-05-23T19:47:29.403Z,2.87
2019-05-23T19:49:57.973Z,3.00
2019-05-23T19:52:26.713Z,2.53
2019-05-23T19:54:55.541Z,2.83
2019-05-23T19:57:24.713Z,3.20
2019-05-23T19:59:53.321Z,2.93
2019-05-23T20:02:26.540Z,3.23
2019-05-23T20:04:56.871Z,3.10
2019-05-23T20:07:25.753Z,3.47
2019-05-23T20:09:57.469Z,3.30
2019-05-23T20:12:27.798Z,3.40
2019-05-23T20:14:56.317Z,3.63
2019-05-23T20:17:26.336Z,3.70
2019-05-23T20:19:54.792Z,3.47
2019-05-23T20:22:25.092Z,4.20
2019-05-23T20:24:53.558Z,4.03
2019-05-23T20:27:23.547Z,3.97
2019-05-23T20:29:52.177Z,3.73
2019-05-23T20:32:20.824Z,4.20
2019-05-23T20:34:49.281Z,3.30
2019-05-23T20:37:20.182Z,3.33
2019-05-23T20:39:48.639Z,4.00
2019-05-23T20:42:17.081Z,3.70
2019-05-23T20:44:45.703Z,3.60
2019-05-23T20:47:14.504Z,4.00
2019-05-23T20:49:43.214Z,3.33
2019-05-23T20:52:12.519Z,3.23
2019-05-23T20:54:41.014Z,3.17
2019-05-23T20:57:09.515Z,3.30
2019-05-23T20:59:38.499Z,3.37
2019-05-23T21:02:07.192Z,4.40
2019-05-23T21:04:36.076Z,3.70
2019-05-23T21:07:04.563Z,3.50
2019-05-23T21:09:33.055Z,2.93
2019-05-23T21:12:03.152Z,3.30
2019-05-23T21:14:33.536Z,3.67
2019-05-23T21:17:02.193Z,3.50
2019-05-23T21:19:30.777Z,3.03
2019-05-23T21:21:59.378Z,4.10
2019-05-23T21:24:29.537Z,3.80
2019-05-23T21:27:00.807Z,3.93
2019-05-23T21:29:29.291Z,3.90
2019-05-23T21:31:59.320Z,4.10
2019-05-23T21:34:27.752Z,3.57
2019-05-23T21:36:56.192Z,3.60
2019-05-23T21:39:24.692Z,3.87
2019-05-23T21:41:53.509Z,3.60
2019-05-23T21:44:22.011Z,4.20
2019-05-23T21:46:50.820Z,3.27
2019-05-23T21:49:19.238Z,3.73
2019-05-23T21:51:47.682Z,3.10
2019-05-23T21:54:16.141Z,3.60
2019-05-23T21:56:44.675Z,3.87
2019-05-23T21:59:13.147Z,3.60
2019-05-23T22:01:45.884Z,3.80
2019-05-23T22:04:16.232Z,3.87
2019-05-23T22:06:46.493Z,3.40
2019-05-23T22:09:15.344Z,3.72
2019-05-23T22:11:43.869Z,4.15
2019-05-23T22:14:12.530Z,3.90
2019-05-23T22:16:41.002Z,4.08
2019-05-23T22:19:11.247Z,3.50
2019-05-23T22:21:39.839Z,3.83
2019-05-23T22:24:09.108Z,3.55
2019-05-23T22:26:37.763Z,4.08
2019-05-23T22:29:06.928Z,3.60
2019-05-23T22:31:36.000Z,3.92
2019-05-23T22:34:09.304Z,3.40
2019-05-23T22:36:37.798Z,3.40
2019-05-23T22:39:08.437Z,3.90
2019-05-23T22:41:37.552Z,3.05
2019-05-23T22:44:08.212Z,3.52
2019-05-23T22:46:36.670Z,3.50
2019-05-23T22:49:05.126Z,4.15
2019-05-23T22:51:33.678Z,3.62
2019-05-23T22:54:02.396Z,3.55
2019-05-23T22:56:30.908Z,4.20
2019-05-23T22:58:59.420Z,3.05
2019-05-23T23:01:29.780Z,3.33
2019-05-23T23:03:58.215Z,3.30
2019-05-23T23:06:27.212Z,3.50
2019-05-23T23:08:55.738Z,3.50
2019-05-23T23:11:24.226Z,3.60
2019-05-23T23:13:52.934Z,2.87
2019-05-23T23:16:21.363Z,3.05
2019-05-23T23:18:49.869Z,3.40
2019-05-23T23:21:18.292Z,3.20
2019-05-23T23:23:48.303Z,4.50
2019-05-23T23:26:16.799Z,4.20
2019-05-23T23:28:45.251Z,3.83
2019-05-23T23:31:13.750Z,4.15
2019-05-23T23:33:42.193Z,3.62
2019-05-23T23:36:10.688Z,4.15
2019-05-23T23:38:40.662Z,3.92
2019-05-23T23:41:09.388Z,3.77
2019-05-23T23:43:37.811Z,4.17
2019-05-23T23:46:24.515Z,4.10
2019-05-23T23:49:11.131Z,3.67
2019-05-23T23:51:57.758Z,3.50
2019-05-23T23:54:44.230Z,3.50
2019-05-23T23:57:31.215Z,3.75
